Time;durP1;ratioP1;P1;durP2;ratioP2;P2;SDS_P1;SDS_P2;PMS_P1;PMS_P2;Temp;Humidity;BMP_temperature;BMP_pressure;BME280_temperature;BME280_humidity;BME280_pressure;Samples;Min_cycle;Max_cycle;Signal;HPM_P1;HPM_P2
2021/05/07 00:00:03;;;;;;;8.93;2.08;;;;;;;18.92;54.84;101106.81;4972547;28;20039;-64
2021/05/07 00:02:30;;;;;;;5.38;1.50;;;;;;;18.76;55.18;101101.72;4970821;28;20182;-64
2021/05/07 00:04:57;;;;;;;4.90;1.42;;;;;;;18.66;55.53;101103.59;4972361;28;20086;-65
2021/05/07 00:07:26;;;;;;;5.85;2.25;;;;;;;18.70;55.44;101105.34;4972764;28;20089;-65
2021/05/07 00:09:53;;;;;;;4.30;1.10;;;;;;;18.69;55.35;101101.78;4973123;28;20078;-64
2021/05/07 00:12:20;;;;;;;5.28;1.55;;;;;;;18.74;54.93;101099.03;4972212;28;20105;-65
2021/05/07 00:14:48;;;;;;;7.88;1.55;;;;;;;18.78;54.66;101094.53;4972398;28;20118;-65
2021/05/07 00:17:15;;;;;;;7.10;1.67;;;;;;;18.75;54.52;101075.84;4971797;28;20110;-64
2021/05/07 00:19:42;;;;;;;4.72;1.30;;;;;;;18.73;54.39;101077.66;4972180;28;20487;-64
2021/05/07 00:22:09;;;;;;;6.97;1.83;;;;;;;18.56;54.77;101081.44;4971549;28;20054;-65
2021/05/07 00:24:37;;;;;;;7.60;1.13;;;;;;;18.46;55.14;101069.03;4972257;28;20062;-64
2021/05/07 00:27:04;;;;;;;6.00;1.25;;;;;;;18.50;55.30;101064.56;4972036;28;20531;-64
2021/05/07 00:29:31;;;;;;;6.68;2.08;;;;;;;18.32;55.62;101063.84;4971371;28;20058;-67
2021/05/07 00:31:59;;;;;;;4.38;1.52;;;;;;;18.24;56.07;101062.19;4972301;28;20070;-65
2021/05/07 00:34:26;;;;;;;6.38;1.63;;;;;;;18.10;56.74;101064.13;4971429;28;20418;-65
2021/05/07 00:36:53;;;;;;;5.47;1.10;;;;;;;18.25;56.47;101058.56;4971788;28;20070;-65
2021/05/07 00:39:21;;;;;;;6.38;1.30;;;;;;;18.35;56.18;101059.38;4972658;28;20118;-65
2021/05/07 00:41:49;;;;;;;6.82;1.70;;;;;;;18.28;56.30;101056.78;4970755;28;20047;-64
2021/05/07 00:44:17;;;;;;;7.72;1.67;;;;;;;18.27;56.46;101055.00;4971216;28;20066;-64
2021/05/07 00:46:45;;;;;;;5.82;1.67;;;;;;;18.38;56.21;101046.84;4972179;28;20125;-65
2021/05/07 00:49:12;;;;;;;6.80;1.45;;;;;;;18.47;56.16;101040.50;4971521;28;20061;-65
2021/05/07 00:51:40;;;;;;;5.72;1.33;;;;;;;18.56;55.98;101049.34;4971533;28;20066;-65
2021/05/07 00:54:07;;;;;;;7.82;1.35;;;;;;;18.58;55.81;101051.97;4971307;28;20518;-65
2021/05/07 00:56:35;;;;;;;4.05;1.08;;;;;;;18.38;56.38;101059.34;4970723;28;20500;-65
2021/05/07 00:59:03;;;;;;;8.27;1.60;;;;;;;18.18;56.80;101063.09;4972415;28;20059;-66
2021/05/07 01:01:31;;;;;;;5.28;1.60;;;;;;;18.21;56.94;101055.06;4970866;28;20062;-64
2021/05/07 01:03:59;;;;;;;6.38;1.10;;;;;;;18.31;56.60;101054.06;4970845;28;20086;-64
2021/05/07 01:06:27;;;;;;;3.40;1.05;;;;;;;18.34;56.43;101053.16;4965983;28;20042;-65
2021/05/07 01:08:54;;;;;;;4.63;1.30;;;;;;;18.26;56.60;101050.56;4962132;28;20129;-64
2021/05/07 01:11:21;;;;;;;4.00;1.20;;;;;;;18.19;56.78;101048.84;4980982;28;20038;-64
2021/05/07 01:13:49;;;;;;;7.07;1.85;;;;;;;18.13;56.84;101043.56;4971645;28;20042;-65
2021/05/07 01:16:17;;;;;;;4.85;1.52;;;;;;;18.10;57.00;101050.75;4971539;28;20117;-65
2021/05/07 01:18:44;;;;;;;5.85;1.45;;;;;;;18.13;56.84;101042.69;4971841;28;20503;-65
2021/05/07 01:21:12;;;;;;;5.93;1.77;;;;;;;18.11;56.58;101047.19;4971406;28;20131;-65
2021/05/07 01:23:39;;;;;;;6.47;1.15;;;;;;;17.96;56.76;101045.56;4968333;28;20073;-65
2021/05/07 01:26:06;;;;;;;3.85;1.20;;;;;;;17.79;57.39;101037.69;4971367;28;20114;-65
2021/05/07 01:28:34;;;;;;;5.53;1.60;;;;;;;17.73;57.55;101037.75;4972036;28;20050;-65
2021/05/07 01:31:02;;;;;;;6.97;2.28;;;;;;;17.66;58.05;101036.03;4971945;28;20062;-65
2021/05/07 01:33:29;;;;;;;7.68;1.40;;;;;;;17.67;58.12;101043.16;4971631;28;20039;-65
2021/05/07 01:35:57;;;;;;;7.45;1.63;;;;;;;17.65;58.03;101044.97;4971702;28;20055;-65
2021/05/07 01:38:45;;;;;;;8.82;1.52;;;;;;;17.60;58.14;101037.81;4970350;28;20046;-65
2021/05/07 01:41:12;;;;;;;5.22;1.92;;;;;;;17.67;57.98;101042.25;4957120;28;20035;-65
2021/05/07 01:43:39;;;;;;;13.30;2.15;;;;;;;17.73;58.05;101032.41;4971059;28;20130;-64
2021/05/07 01:46:06;;;;;;;6.88;1.33;;;;;;;17.62;58.31;101033.41;4971055;28;20436;-65
2021/05/07 01:48:33;;;;;;;6.70;1.67;;;;;;;17.46;58.70;101044.16;4970631;28;20049;-65
2021/05/07 01:51:05;;;;;;;10.18;1.88;;;;;;;17.50;58.78;101034.38;4970916;28;20426;-65
2021/05/07 01:53:33;;;;;;;7.50;1.75;;;;;;;17.46;58.94;101038.84;4971249;28;20074;-65
2021/05/07 01:56:01;;;;;;;10.43;1.85;;;;;;;17.48;59.00;101034.38;4971389;28;20046;-65
2021/05/07 01:58:28;;;;;;;6.60;1.85;;;;;;;17.49;58.96;101029.94;4971042;28;20070;-66
2021/05/07 02:00:57;;;;;;;6.07;1.63;;;;;;;17.52;58.81;101019.25;4963187;28;20121;-65
2021/05/07 02:03:25;;;;;;;8.05;1.52;;;;;;;17.55;58.57;101027.19;4982875;28;20073;-66
2021/05/07 02:05:52;;;;;;;9.98;2.17;;;;;;;17.62;58.37;101028.06;4970856;28;20049;-65
2021/05/07 02:08:19;;;;;;;6.18;1.33;;;;;;;17.44;58.65;101023.75;4970135;28;20038;-65
2021/05/07 02:10:46;;;;;;;4.20;1.60;;;;;;;17.41;58.77;101015.75;4970968;28;20057;-66
2021/05/07 02:13:15;;;;;;;4.38;1.63;;;;;;;17.34;58.89;101014.91;4970368;28;20539;-65
2021/05/07 02:15:42;;;;;;;4.35;1.25;;;;;;;17.36;58.75;101010.47;4961774;28;20122;-65
2021/05/07 02:18:10;;;;;;;6.80;1.30;;;;;;;17.41;58.52;101013.97;4966478;28;20054;-66
2021/05/07 02:20:38;;;;;;;7.45;1.80;;;;;;;17.42;58.37;101005.06;4971190;28;20039;-65
2021/05/07 02:23:06;;;;;;;7.25;1.40;;;;;;;17.44;58.53;101013.06;4971368;28;20426;-65
2021/05/07 02:25:33;;;;;;;8.90;2.00;;;;;;;17.47;58.35;101013.03;4973533;28;20050;-66
2021/05/07 02:28:01;;;;;;;5.00;1.65;;;;;;;17.47;58.43;101019.25;4974349;28;20502;-65
2021/05/07 02:30:31;;;;;;;5.72;1.33;;;;;;;17.25;59.11;101023.00;4971387;28;20101;-66
2021/05/07 02:32:58;;;;;;;10.07;1.90;;;;;;;17.25;59.32;101016.78;4974988;28;20121;-65
2021/05/07 02:35:26;;;;;;;6.07;1.40;;;;;;;17.25;59.33;101009.66;4974498;28;20039;-65
2021/05/07 02:37:53;;;;;;;4.00;1.40;;;;;;;17.19;59.51;101014.16;4974044;28;20054;-65
2021/05/07 02:40:21;;;;;;;5.88;1.55;;;;;;;17.11;59.59;101032.88;4973075;28;20109;-65
2021/05/07 02:42:48;;;;;;;6.38;2.03;;;;;;;17.14;59.28;101027.50;4974116;28;20043;-65
2021/05/07 02:45:15;;;;;;;5.72;1.40;;;;;;;17.20;59.02;101027.47;4974747;28;20086;-65
2021/05/07 02:47:44;;;;;;;6.45;1.42;;;;;;;17.25;58.87;101017.69;4973556;28;20043;-65
2021/05/07 02:50:12;;;;;;;4.20;1.25;;;;;;;17.21;59.20;101021.25;4964565;28;20039;-65
2021/05/07 02:52:40;;;;;;;7.70;1.48;;;;;;;17.16;59.22;101025.72;4968169;28;20062;-65
2021/05/07 02:55:09;;;;;;;6.80;2.03;;;;;;;17.06;59.37;101019.59;4973999;28;20395;-64
2021/05/07 02:57:36;;;;;;;7.95;1.17;;;;;;;16.99;59.37;101016.97;4972985;28;20042;-65
2021/05/07 03:00:07;;;;;;;5.85;1.00;;;;;;;17.07;59.08;101028.44;4973383;28;20179;-65
2021/05/07 03:02:35;;;;;;;5.05;1.77;;;;;;;17.11;58.97;101022.22;4973162;28;20035;-64
2021/05/07 03:05:04;;;;;;;6.40;1.40;;;;;;;17.21;58.62;101026.59;4974690;28;20387;-65
2021/05/07 03:07:31;;;;;;;7.03;1.20;;;;;;;17.24;58.25;101021.25;4973941;28;20062;-65
2021/05/07 03:09:58;;;;;;;5.72;1.27;;;;;;;17.23;58.27;101021.25;4972609;28;20136;-65
2021/05/07 03:12:26;;;;;;;4.30;1.10;;;;;;;17.17;58.39;101022.19;4972565;28;20071;-65
2021/05/07 03:14:53;;;;;;;6.25;1.20;;;;;;;17.11;58.30;101019.56;4973510;28;20554;-65
2021/05/07 03:17:20;;;;;;;5.63;1.50;;;;;;;17.08;58.23;101025.78;4972452;28;20045;-65
2021/05/07 03:19:47;;;;;;;7.03;1.33;;;;;;;17.10;58.22;101031.13;4973097;28;20057;-65
2021/05/07 03:22:16;;;;;;;5.22;1.60;;;;;;;17.17;58.01;101035.50;4972826;28;20545;-65
2021/05/07 03:24:43;;;;;;;8.23;1.70;;;;;;;17.21;57.88;101039.03;4973545;28;20098;-66
2021/05/07 03:27:10;;;;;;;5.35;1.13;;;;;;;17.22;57.72;101032.81;4972976;28;20066;-65
2021/05/07 03:29:37;;;;;;;9.45;1.45;;;;;;;17.29;57.51;101030.09;4973497;28;20078;-64
2021/05/07 03:32:05;;;;;;;6.68;1.10;;;;;;;17.40;57.45;101036.22;4972400;28;20050;-65
2021/05/07 03:34:33;;;;;;;5.43;1.20;;;;;;;17.55;56.99;101037.88;4971922;28;20411;-65
2021/05/07 03:37:00;;;;;;;3.72;1.20;;;;;;;17.71;56.48;101038.69;4972899;28;20043;-65
2021/05/07 03:39:28;;;;;;;5.40;1.48;;;;;;;17.79;56.42;101045.69;4972711;28;20081;-65
2021/05/07 03:41:55;;;;;;;3.92;1.20;;;;;;;17.73;56.36;101048.44;4971956;28;20047;-65
2021/05/07 03:44:23;;;;;;;5.32;1.17;;;;;;;17.69;56.46;101045.81;4972203;28;20133;-65
2021/05/07 03:46:50;;;;;;;6.63;1.17;;;;;;;17.70;56.50;101048.47;4973291;28;20126;-65
2021/05/07 03:49:16;;;;;;;5.38;1.20;;;;;;;17.79;56.25;101045.69;4967454;28;20039;-65
2021/05/07 03:51:44;;;;;;;5.65;1.27;;;;;;;17.88;56.10;101044.72;4971968;28;20066;-65
2021/05/07 03:54:11;;;;;;;7.43;1.10;;;;;;;17.95;55.98;101041.09;4972185;28;20035;-65
2021/05/07 03:56:40;;;;;;;6.22;1.20;;;;;;;18.14;55.62;101041.78;4972704;28;20527;-65
2021/05/07 03:59:07;;;;;;;3.13;1.20;;;;;;;18.32;55.27;101039.78;4971919;28;20122;-65
2021/05/07 04:01:34;;;;;;;7.15;2.78;;;;;;;18.49;54.85;101050.28;4964342;28;20050;-65
2021/05/07 04:04:05;;;;;;;5.18;1.10;;;;;;;18.51;54.45;101055.63;4961896;28;20518;-64
2021/05/07 04:06:32;;;;;;;5.80;1.02;;;;;;;18.45;54.54;101061.03;4968114;28;20050;-65
2021/05/07 04:09:04;;;;;;;3.38;1.20;;;;;;;18.46;54.43;101061.00;4972645;28;20098;-65
2021/05/07 04:11:34;;;;;;;4.32;1.17;;;;;;;18.57;54.42;101067.19;4972719;28;20045;-65
2021/05/07 04:14:02;;;;;;;5.32;1.42;;;;;;;18.68;54.18;101062.56;4972798;28;20047;-65
2021/05/07 04:16:30;;;;;;;6.88;1.40;;;;;;;18.70;53.86;101060.78;4972489;28;20047;-66
2021/05/07 04:18:57;;;;;;;9.10;1.42;;;;;;;18.85;54.09;101072.16;4971843;28;20046;-65
2021/05/07 04:21:24;;;;;;;11.00;1.20;;;;;;;19.13;54.12;101076.22;4972661;28;20173;-66
2021/05/07 04:23:51;;;;;;;6.25;1.40;;;;;;;19.44;53.49;101069.47;4966201;28;20051;-65
2021/05/07 04:26:19;;;;;;;6.32;1.63;;;;;;;19.73;53.02;101071.72;4962563;28;20402;-65
2021/05/07 04:28:47;;;;;;;5.63;0.93;;;;;;;20.03;53.00;101080.13;4972070;28;20054;-65
2021/05/07 04:31:15;;;;;;;4.57;0.90;;;;;;;20.30;53.14;101068.88;4972235;28;20038;-65
2021/05/07 04:33:42;;;;;;;4.72;1.15;;;;;;;20.51;53.07;101076.56;4972595;28;20085;-65
2021/05/07 04:36:10;;;;;;;6.47;1.35;;;;;;;20.73;53.00;101078.81;4972307;28;20498;-65
2021/05/07 04:38:37;;;;;;;6.40;1.10;;;;;;;20.95;52.62;101083.66;4972284;28;20452;-65
2021/05/07 04:41:04;;;;;;;7.70;1.00;;;;;;;21.15;52.29;101082.31;4972316;28;20092;-65
2021/05/07 04:43:32;;;;;;;4.80;1.48;;;;;;;21.25;51.16;101076.75;4972562;28;20130;-66
2021/05/07 04:45:59;;;;;;;2.58;1.08;;;;;;;21.31;50.88;101084.69;4972147;28;20050;-65
2021/05/07 04:48:29;;;;;;;6.22;1.38;;;;;;;21.45;50.42;101087.94;4970854;28;20049;-65
2021/05/07 04:50:56;;;;;;;5.43;0.98;;;;;;;21.64;50.12;101107.16;4972479;28;20039;-66
2021/05/07 04:53:23;;;;;;;4.35;0.88;;;;;;;21.91;49.72;101102.91;4971814;28;20126;-66
2021/05/07 04:55:50;;;;;;;4.60;1.20;;;;;;;22.22;49.73;101101.22;4972269;28;20150;-65
2021/05/07 04:58:17;;;;;;;4.43;0.82;;;;;;;22.49;48.95;101101.38;4971435;28;20435;-66
2021/05/07 05:00:44;;;;;;;5.90;1.95;;;;;;;22.77;48.57;101096.13;4971477;28;20066;-66
2021/05/07 05:03:11;;;;;;;8.05;1.40;;;;;;;22.99;48.14;101100.81;4970312;28;20497;-66
2021/05/07 05:05:39;;;;;;;5.13;1.08;;;;;;;23.27;47.83;101108.06;4972004;28;20038;-65
2021/05/07 05:08:06;;;;;;;7.00;1.23;;;;;;;23.44;47.17;101098.50;4970416;28;20051;-65
2021/05/07 05:10:34;;;;;;;6.85;1.15;;;;;;;23.67;46.75;101105.88;4971828;28;20494;-65
2021/05/07 05:13:01;;;;;;;7.43;1.17;;;;;;;23.91;46.11;101106.00;4971705;28;20039;-65
2021/05/07 05:15:29;;;;;;;7.93;1.38;;;;;;;24.16;45.61;101110.50;4971176;28;20075;-65
2021/05/07 05:17:56;;;;;;;6.90;1.27;;;;;;;24.40;44.94;101103.38;4970086;28;20051;-66
2021/05/07 05:20:23;;;;;;;8.05;1.25;;;;;;;24.70;44.53;101106.78;4971211;28;20069;-66
2021/05/07 05:22:51;;;;;;;8.02;1.20;;;;;;;25.04;43.95;101111.81;4962933;28;20415;-65
2021/05/07 05:25:19;;;;;;;4.47;1.00;;;;;;;25.35;43.46;101104.25;4967782;28;20118;-66
2021/05/07 05:27:46;;;;;;;5.43;1.38;;;;;;;25.51;42.58;101112.66;4970342;28;20130;-66
2021/05/07 05:30:14;;;;;;;4.82;1.40;;;;;;;25.71;41.88;101117.28;4970716;28;20503;-66
2021/05/07 05:32:41;;;;;;;6.38;1.13;;;;;;;25.94;41.22;101106.34;4964719;28;20047;-66
2021/05/07 05:35:10;;;;;;;5.72;1.35;;;;;;;26.18;40.88;101107.16;4969485;28;20059;-66
2021/05/07 05:37:37;;;;;;;3.90;0.90;;;;;;;26.46;40.26;101115.84;4971363;28;20038;-66
2021/05/07 05:40:08;;;;;;;6.05;1.65;;;;;;;26.71;39.68;101107.50;4971579;28;20038;-66
2021/05/07 05:42:35;;;;;;;7.05;1.33;;;;;;;26.97;39.63;101114.47;4951377;28;20126;-66
2021/05/07 05:45:02;;;;;;;4.40;1.10;;;;;;;27.27;39.50;101120.25;4970564;28;20114;-66
2021/05/07 05:47:29;;;;;;;7.57;1.20;;;;;;;27.53;39.34;101117.19;4971733;28;20041;-66
2021/05/07 05:49:57;;;;;;;9.15;1.23;;;;;;;27.79;38.56;101115.03;4961614;28;20055;-66
2021/05/07 05:52:24;;;;;;;4.85;1.33;;;;;;;28.01;37.33;101121.13;4971780;28;20058;-66
2021/05/07 05:54:51;;;;;;;5.78;1.10;;;;;;;28.20;36.63;101121.09;4971492;28;20039;-66
2021/05/07 05:57:20;;;;;;;8.23;1.08;;;;;;;28.43;36.03;101118.91;4970932;28;20042;-66
2021/05/07 05:59:50;;;;;;;4.90;0.80;;;;;;;28.61;35.50;101114.38;4972250;28;20082;-66
2021/05/07 06:02:17;;;;;;;8.15;0.77;;;;;;;28.85;35.40;101112.19;4981582;28;20033;-66
2021/05/07 06:04:44;;;;;;;5.85;0.93;;;;;;;29.05;34.81;101117.41;4990674;28;20546;-66
2021/05/07 06:07:12;;;;;;;3.78;1.20;;;;;;;29.23;34.36;101102.78;4957230;28;20126;-66
2021/05/07 06:09:39;;;;;;;4.95;1.08;;;;;;;29.27;34.28;101115.25;4974755;28;20035;-66
2021/05/07 06:12:07;;;;;;;5.47;0.77;;;;;;;28.90;33.99;101118.25;4972485;28;20046;-66
2021/05/07 06:14:36;;;;;;;7.20;1.02;;;;;;;28.42;34.35;101128.03;4974626;28;20078;-66
2021/05/07 06:17:03;;;;;;;3.70;0.98;;;;;;;28.61;34.49;101129.78;4970538;28;20054;-66
2021/05/07 06:19:30;;;;;;;7.53;1.27;;;;;;;28.52;34.86;101134.75;4974388;28;20049;-66
2021/05/07 06:21:57;;;;;;;7.45;1.25;;;;;;;28.50;35.00;101139.38;4973735;28;20053;-66
2021/05/07 06:24:24;;;;;;;7.80;1.05;;;;;;;28.53;34.59;101136.50;4974753;28;20055;-66
2021/05/07 06:26:51;;;;;;;7.60;1.15;;;;;;;28.67;34.46;101140.34;4974487;28;20504;-66
2021/05/07 06:29:18;;;;;;;6.50;0.80;;;;;;;28.88;34.18;101159.09;4972250;28;20115;-66
2021/05/07 06:31:47;;;;;;;5.55;1.00;;;;;;;28.84;33.50;101152.09;4970083;28;20079;-66
2021/05/07 06:34:14;;;;;;;7.38;1.35;;;;;;;28.86;33.76;101152.88;4974292;28;20034;-66
2021/05/07 06:36:41;;;;;;;7.57;1.75;;;;;;;28.91;34.10;101156.22;4972765;28;20130;-66
2021/05/07 06:39:08;;;;;;;5.50;1.27;;;;;;;28.87;34.40;101161.94;4983198;28;20121;-66
2021/05/07 06:41:35;;;;;;;5.47;1.20;;;;;;;28.85;33.87;101156.56;4949022;28;20059;-67
2021/05/07 06:44:05;;;;;;;9.32;1.70;;;;;;;28.79;33.89;101148.75;4956110;28;20070;-65
2021/05/07 06:46:32;;;;;;;4.72;1.33;;;;;;;28.91;33.31;101155.34;4968384;28;20047;-66
2021/05/07 06:49:00;;;;;;;4.22;1.00;;;;;;;28.90;33.05;101151.75;4973344;28;20053;-66
2021/05/07 06:51:28;;;;;;;5.78;1.45;;;;;;;29.01;32.96;101145.75;4970628;28;20130;-66
2021/05/07 06:53:55;;;;;;;8.15;1.20;;;;;;;29.01;32.44;101143.03;4973861;28;20074;-66
2021/05/07 06:56:22;;;;;;;10.95;1.00;;;;;;;29.09;31.81;101139.84;4972915;28;20046;-66
2021/05/07 06:58:50;;;;;;;6.32;1.25;;;;;;;29.03;31.54;101141.06;4972963;28;20129;-67
2021/05/07 07:01:17;;;;;;;4.95;1.20;;;;;;;29.28;31.16;101138.75;4970280;28;20043;-66
2021/05/07 07:03:44;;;;;;;5.10;1.10;;;;;;;29.43;30.90;101145.22;4971656;28;20130;-66
2021/05/07 07:06:12;;;;;;;5.85;0.90;;;;;;;29.56;30.72;101140.81;4970424;28;20416;-65
2021/05/07 07:08:40;;;;;;;5.93;1.33;;;;;;;29.69;30.84;101141.00;4973755;28;20043;-66
2021/05/07 07:11:11;;;;;;;7.65;1.20;;;;;;;29.81;30.39;101140.28;4976516;28;20085;-66
2021/05/07 07:13:38;;;;;;;5.65;1.00;;;;;;;29.89;30.07;101137.97;4956042;28;20133;-66
2021/05/07 07:16:05;;;;;;;7.20;1.20;;;;;;;30.03;30.10;101146.25;4941430;28;20055;-68
2021/05/07 07:18:33;;;;;;;6.25;1.10;;;;;;;30.10;29.86;101144.94;4970067;28;20039;-65
2021/05/07 07:21:01;;;;;;;7.93;0.98;;;;;;;30.06;29.79;101151.50;4970900;28;20461;-65
2021/05/07 07:23:30;;;;;;;5.63;1.27;;;;;;;30.07;29.79;101142.38;4974957;28;20641;-65
2021/05/07 07:25:57;;;;;;;6.07;1.10;;;;;;;29.94;30.28;101144.06;4964353;28;20049;-66
2021/05/07 07:28:24;;;;;;;4.03;1.00;;;;;;;29.52;30.52;101154.69;4983629;28;20558;-65
2021/05/07 07:30:51;;;;;;;6.18;1.30;;;;;;;29.07;30.84;101144.53;4958169;28;20054;-65
2021/05/07 07:33:18;;;;;;;4.68;1.35;;;;;;;29.04;30.80;101137.41;4949437;28;20133;-64
2021/05/07 07:35:45;;;;;;;3.67;0.90;;;;;;;29.14;30.50;101129.63;4973207;28;20054;-65
2021/05/07 07:38:14;;;;;;;7.80;1.25;;;;;;;29.53;30.12;101135.56;4971090;28;20068;-65
2021/05/07 07:40:42;;;;;;;3.05;1.10;;;;;;;29.81;29.88;101134.81;4969004;28;20047;-65
2021/05/07 07:43:10;;;;;;;4.60;1.10;;;;;;;30.10;29.44;101125.88;4968770;28;20043;-66
2021/05/07 07:45:39;;;;;;;6.32;1.17;;;;;;;30.26;29.03;101127.66;4967032;28;20042;-66
2021/05/07 07:48:07;;;;;;;6.25;1.10;;;;;;;30.47;29.05;101126.34;4961998;28;20031;-66
2021/05/07 07:50:36;;;;;;;4.75;0.90;;;;;;;30.64;28.69;101131.69;4961847;28;20047;-66
2021/05/07 07:53:03;;;;;;;5.25;0.90;;;;;;;30.87;28.30;101122.03;4965634;28;20047;-66
2021/05/07 07:55:31;;;;;;;4.05;0.98;;;;;;;30.86;28.34;101133.91;4958407;28;20049;-66
2021/05/07 07:58:00;;;;;;;6.88;1.10;;;;;;;31.02;28.56;101131.13;4969795;28;20068;-66
2021/05/07 08:00:27;;;;;;;6.03;1.00;;;;;;;31.05;28.24;101133.69;4971686;28;20054;-66
2021/05/07 08:02:54;;;;;;;4.13;1.00;;;;;;;31.20;28.30;101132.69;4969971;28;20130;-66
2021/05/07 08:05:21;;;;;;;5.57;1.30;;;;;;;31.27;27.96;101132.19;4971473;28;20518;-65
2021/05/07 08:07:48;;;;;;;5.25;1.35;;;;;;;31.33;28.01;101135.50;4960145;28;20499;-66
2021/05/07 08:10:17;;;;;;;3.08;1.10;;;;;;;31.36;28.14;101138.94;4961275;28;20039;-66
2021/05/07 08:12:45;;;;;;;5.60;0.93;;;;;;;31.42;28.25;101124.88;4965895;28;20057;-65
2021/05/07 08:15:14;;;;;;;6.78;1.33;;;;;;;31.37;27.77;101116.13;4965367;28;20118;-65
2021/05/07 08:17:41;;;;;;;4.65;0.80;;;;;;;31.36;27.87;101119.81;4955808;28;20169;-65
2021/05/07 08:20:09;;;;;;;3.58;1.00;;;;;;;31.66;27.32;101127.84;4966725;28;20043;-66
2021/05/07 08:22:37;;;;;;;4.57;1.15;;;;;;;31.63;27.94;101134.41;4959796;28;20052;-65
2021/05/07 08:25:04;;;;;;;7.18;1.30;;;;;;;31.58;27.98;101128.34;4945309;28;20058;-65
2021/05/07 08:27:31;;;;;;;3.78;0.85;;;;;;;31.45;28.07;101134.69;4965600;28;20491;-65
2021/05/07 08:29:58;;;;;;;11.88;1.50;;;;;;;31.47;28.06;101138.22;4967442;28;20090;-65
2021/05/07 08:32:26;;;;;;;3.72;1.08;;;;;;;31.44;28.81;101142.00;4947903;28;20839;-65
2021/05/07 08:34:54;;;;;;;4.88;1.30;;;;;;;31.55;28.80;101139.47;4956130;28;20106;-65
2021/05/07 08:37:23;;;;;;;8.93;1.52;;;;;;;31.59;28.52;101153.78;4968727;28;20066;-65
2021/05/07 08:39:52;;;;;;;4.57;0.90;;;;;;;31.70;28.48;101155.84;4965427;28;20503;-65
2021/05/07 08:42:21;;;;;;;5.07;1.10;;;;;;;31.73;28.20;101158.38;4952560;28;20039;-65
2021/05/07 08:44:48;;;;;;;4.45;1.05;;;;;;;31.87;27.74;101164.69;4971982;28;20045;-65
2021/05/07 08:47:18;;;;;;;4.25;1.02;;;;;;;31.92;27.55;101161.63;4968912;28;20533;-65
2021/05/07 08:49:49;;;;;;;2.08;0.98;;;;;;;31.95;26.95;101169.63;4970555;28;20035;-66
2021/05/07 08:52:19;;;;;;;7.82;1.60;;;;;;;31.90;27.20;101160.88;4971725;28;20034;-66
2021/05/07 08:54:46;;;;;;;6.22;0.90;;;;;;;31.73;27.21;101144.72;4969855;28;20042;-65
2021/05/07 08:57:14;;;;;;;4.07;1.10;;;;;;;31.63;26.75;101150.81;4968419;28;20038;-65
2021/05/07 08:59:41;;;;;;;5.65;1.00;;;;;;;31.76;26.68;101152.72;4969033;28;20641;-66
2021/05/07 09:02:09;;;;;;;5.72;1.30;;;;;;;32.00;26.87;101149.22;4970910;28;20086;-65
2021/05/07 09:04:36;;;;;;;6.57;1.40;;;;;;;31.83;27.09;101157.69;4971166;28;20126;-67
2021/05/07 09:07:13;;;;;;;5.60;1.10;;;;;;;31.44;28.38;101157.53;4971836;28;20516;-66
2021/05/07 09:09:50;;;;;;;8.77;1.75;;;;;;;31.19;28.68;101170.00;4971045;28;20066;-65
2021/05/07 09:12:25;;;;;;;4.07;1.60;;;;;;;31.08;28.00;101158.91;4971561;28;20122;-65
2021/05/07 09:14:53;;;;;;;5.38;1.05;;;;;;;31.00;28.99;101163.06;4962707;28;20122;-65
2021/05/07 09:17:22;;;;;;;6.25;1.00;;;;;;;30.57;30.12;101170.31;4971319;28;20440;-65
2021/05/07 09:19:49;;;;;;;3.25;0.95;;;;;;;30.71;30.32;101171.22;4970920;28;20163;-65
2021/05/07 09:22:26;;;;;;;5.43;1.30;;;;;;;30.76;30.51;101171.81;4971351;28;20129;-66
2021/05/07 09:25:05;;;;;;;5.05;1.00;;;;;;;30.98;30.25;101175.94;4971227;28;20057;-66
2021/05/07 09:27:32;;;;;;;4.25;0.95;;;;;;;30.84;30.40;101169.50;4963626;28;20077;-65
2021/05/07 09:29:59;;;;;;;2.92;0.70;;;;;;;30.80;29.21;101169.75;4970590;28;20081;-65
2021/05/07 09:32:31;;;;;;;5.30;1.05;;;;;;;30.79;27.52;101168.88;4972003;28;20117;-65
2021/05/07 09:35:10;;;;;;;4.57;1.20;;;;;;;30.41;27.23;101175.78;4984391;28;20113;-65
2021/05/07 09:37:38;;;;;;;3.28;0.90;;;;;;;30.32;27.46;101181.81;4975936;28;20078;-66
2021/05/07 09:40:14;;;;;;;7.55;1.17;;;;;;;30.54;27.27;101178.66;4976108;28;20530;-66
2021/05/07 09:42:43;;;;;;;4.25;1.02;;;;;;;30.39;27.11;101180.47;4964712;28;20051;-67
2021/05/07 09:45:26;;;;;;;8.45;1.23;;;;;;;30.38;27.36;101182.31;4988150;28;20138;-66
2021/05/07 09:47:54;;;;;;;3.97;0.90;;;;;;;30.34;27.83;101177.09;4973313;28;20507;-66
2021/05/07 09:50:31;;;;;;;4.32;1.35;;;;;;;30.16;27.86;101173.66;4974197;28;20050;-66
2021/05/07 09:53:10;;;;;;;4.65;1.05;;;;;;;30.45;27.73;101170.06;4975038;28;20102;-66
2021/05/07 09:55:37;;;;;;;3.50;1.05;;;;;;;30.36;27.30;101176.06;4973942;28;20051;-67
2021/05/07 09:58:04;;;;;;;5.40;0.90;;;;;;;30.51;26.86;101174.28;4975050;28;20142;-66
2021/05/07 10:00:32;;;;;;;6.18;1.10;;;;;;;30.67;26.65;101163.31;4966190;28;20398;-66
2021/05/07 10:02:59;;;;;;;5.40;1.35;;;;;;;30.77;27.35;101164.50;4974621;28;20126;-66
2021/05/07 10:05:28;;;;;;;5.20;1.55;;;;;;;30.75;27.72;101167.34;4974674;28;20050;-66
2021/05/07 10:07:58;;;;;;;2.22;1.00;;;;;;;30.94;27.16;101163.44;4975134;28;20408;-65
2021/05/07 10:10:34;;;;;;;4.43;1.40;;;;;;;30.82;27.54;101165.97;4973131;28;20503;-66
2021/05/07 10:13:03;;;;;;;3.28;1.10;;;;;;;30.85;27.78;101163.03;4973311;28;20043;-65
2021/05/07 10:15:32;;;;;;;4.47;1.00;;;;;;;30.91;27.37;101160.94;4972598;28;20043;-65
2021/05/07 10:18:00;;;;;;;5.97;1.40;;;;;;;30.77;27.27;101161.78;4975316;28;20046;-65
2021/05/07 10:20:29;;;;;;;6.97;1.08;;;;;;;30.81;27.75;101152.44;4975207;28;20046;-65
2021/05/07 10:22:56;;;;;;;9.77;1.20;;;;;;;30.85;27.93;101151.28;4974221;28;20042;-65
2021/05/07 10:25:25;;;;;;;3.38;0.90;;;;;;;30.91;27.82;101144.56;4967259;28;20035;-64
2021/05/07 10:27:56;;;;;;;3.95;1.00;;;;;;;30.69;27.85;101143.19;4973768;28;20043;-65
2021/05/07 10:30:31;;;;;;;6.43;1.38;;;;;;;30.73;28.08;101139.28;4973687;28;20126;-65
2021/05/07 10:33:01;;;;;;;6.28;1.40;;;;;;;30.72;28.13;101126.59;4974106;28;20122;-65
2021/05/07 10:35:38;;;;;;;7.03;0.82;;;;;;;30.79;27.95;101127.97;4969868;28;20039;-65
2021/05/07 10:38:14;;;;;;;5.60;1.05;;;;;;;30.59;27.59;101122.88;4955693;28;20130;-65
2021/05/07 10:40:42;;;;;;;9.70;1.80;;;;;;;30.73;28.07;101112.00;4965742;28;20392;-65
2021/05/07 10:43:11;;;;;;;4.25;1.20;;;;;;;30.73;28.15;101114.72;4974729;28;20043;-65
2021/05/07 10:45:47;;;;;;;6.45;1.08;;;;;;;30.53;28.64;101106.91;4973522;28;20046;-66
2021/05/07 10:48:22;;;;;;;5.35;1.25;;;;;;;30.41;28.95;101108.53;4973795;28;20121;-65
2021/05/07 10:50:51;;;;;;;4.97;1.05;;;;;;;30.35;29.60;101108.91;4974014;28;20079;-65
2021/05/07 10:53:35;;;;;;;6.55;1.17;;;;;;;30.36;29.20;101104.31;4971664;28;20038;-65
2021/05/07 10:56:14;;;;;;;;;;;;;;;30.28;29.30;101101.19;4977391;28;20042;-65
2021/05/07 10:58:43;;;;;;;4.80;1.10;;;;;;;30.19;29.64;101101.78;4973944;28;19937;-64
2021/05/07 11:01:26;;;;;;;5.97;1.35;;;;;;;30.36;29.58;101090.72;4951901;28;20054;-64
2021/05/07 11:04:05;;;;;;;3.38;0.90;;;;;;;30.58;29.51;101084.84;4972147;28;20042;-65
2021/05/07 11:06:36;;;;;;;7.95;1.13;;;;;;;30.61;29.46;101099.16;4962208;28;20046;-64
2021/05/07 11:09:19;;;;;;;5.45;1.15;;;;;;;30.61;28.96;101098.25;4966413;28;20121;-65
2021/05/07 11:11:53;;;;;;;7.72;1.35;;;;;;;30.62;29.08;101105.47;4971107;28;20090;-65
2021/05/07 11:14:24;;;;;;;10.55;1.95;;;;;;;30.92;28.78;101105.41;4972969;28;20138;-65
2021/05/07 11:16:55;;;;;;;5.68;1.65;;;;;;;30.97;28.23;101109.59;4971770;28;20117;-65
2021/05/07 11:19:28;;;;;;;9.98;1.90;;;;;;;31.23;28.31;101107.94;4971530;28;20136;-64
2021/05/07 11:21:56;;;;;;;11.75;1.83;;;;;;;31.26;29.21;101105.00;4972498;28;20058;-65
2021/05/07 11:24:28;;;;;;;5.03;0.93;;;;;;;30.64;28.34;101096.25;4963904;28;20043;-65
2021/05/07 11:26:56;;;;;;;4.60;0.88;;;;;;;30.24;28.74;101086.00;4968702;28;20046;-64
2021/05/07 11:29:29;;;;;;;4.03;1.00;;;;;;;30.19;29.43;101083.56;4978142;28;20046;-64